createdAt,value
2023-05-21T00:00:26.728Z,18.73
2023-05-21T02:38:10.842Z,21.00
2023-05-21T02:51:00.176Z,20.98
2023-05-21T02:56:51.568Z,22.02
2023-05-21T03:08:59.517Z,21.92
2023-05-21T03:12:11.211Z,22.60
2023-05-21T03:14:56.641Z,21.25
2023-05-21T03:18:33.423Z,20.80
2023-05-21T03:21:26.682Z,21.33
2023-05-21T03:27:51.268Z,20.33
2023-05-21T03:31:18.987Z,20.42
2023-05-21T03:33:57.690Z,19.40
2023-05-21T03:41:49.812Z,21.00
2023-05-21T03:44:26.593Z,20.23
2023-05-21T03:47:20.849Z,20.05
2023-05-21T03:50:59.450Z,19.40
2023-05-21T03:53:48.949Z,18.98
2023-05-21T03:56:27.074Z,18.25
2023-05-21T03:59:26.751Z,18.67
2023-05-21T04:02:30.703Z,19.77
2023-05-21T04:05:14.647Z,19.35
2023-05-21T04:07:59.905Z,19.50
2023-05-21T04:10:42.362Z,16.73
2023-05-21T04:16:59.822Z,14.73
2023-05-21T04:20:10.470Z,14.18
2023-05-21T04:22:56.165Z,14.20
2023-05-21T04:25:38.497Z,13.57
2023-05-21T04:28:18.007Z,13.15
2023-05-21T04:30:59.587Z,11.02
2023-05-21T04:36:41.316Z,9.90
2023-05-21T04:39:22.699Z,10.90
2023-05-21T04:41:56.662Z,9.65
2023-05-21T04:44:43.499Z,9.90
2023-05-21T04:47:37.389Z,9.23
2023-05-21T04:50:25.214Z,9.23
2023-05-21T04:53:37.566Z,9.80
2023-05-21T04:56:28.202Z,9.85
2023-05-21T05:05:11.413Z,9.82
2023-05-21T05:08:04.808Z,9.35
2023-05-21T05:10:57.078Z,9.20
2023-05-21T05:28:02.661Z,9.43
2023-05-21T05:36:49.915Z,9.05
2023-05-21T05:39:20.370Z,10.05
2023-05-21T05:42:33.308Z,12.15
2023-05-21T05:45:29.884Z,11.93
2023-05-21T05:48:04.462Z,12.35
2023-05-21T05:51:01.184Z,11.93
2023-05-21T05:56:41.511Z,13.25
2023-05-21T05:59:21.448Z,12.75
2023-05-21T06:01:55.738Z,13.88
2023-05-21T06:04:30.444Z,13.02
2023-05-21T06:10:46.076Z,13.15
2023-05-21T06:17:08.699Z,13.85
2023-05-21T06:19:50.397Z,12.95
2023-05-21T06:22:39.644Z,12.20
2023-05-21T06:25:13.796Z,12.68
2023-05-21T06:28:30.973Z,12.60
2023-05-21T06:31:06.832Z,12.30
2023-05-21T06:33:39.068Z,11.77
2023-05-21T06:36:10.419Z,11.73
2023-05-21T06:38:56.245Z,12.32
2023-05-21T06:41:26.714Z,11.35
2023-05-21T06:47:19.075Z,9.15
2023-05-21T06:50:06.896Z,8.18
2023-05-21T06:53:35.486Z,9.45
2023-05-21T06:59:34.946Z,8.27
2023-05-21T07:07:09.179Z,8.70
2023-05-21T07:09:41.517Z,8.43
2023-05-21T07:13:11.575Z,8.23
2023-05-21T07:15:39.196Z,8.02
2023-05-21T07:18:13.998Z,7.70
2023-05-21T07:20:41.347Z,8.02
2023-05-21T07:23:30.957Z,8.13
2023-05-21T07:26:15.434Z,7.70
2023-05-21T07:28:51.202Z,7.93
2023-05-21T07:38:40.317Z,8.32
2023-05-21T07:41:25.632Z,8.68
2023-05-21T07:43:56.060Z,7.57
2023-05-21T07:46:35.195Z,7.43
2023-05-21T07:52:40.417Z,7.18
2023-05-21T07:55:12.206Z,7.50
2023-05-21T07:58:10.369Z,7.47
2023-05-21T08:01:19.965Z,7.60
2023-05-21T08:07:09.404Z,7.13
2023-05-21T08:09:36.897Z,7.32
2023-05-21T08:12:04.985Z,7.43
2023-05-21T08:14:33.934Z,6.80
2023-05-21T08:17:03.972Z,6.72
2023-05-21T08:19:35.839Z,7.32
2023-05-21T08:22:08.426Z,7.55
2023-05-21T08:25:00.907Z,7.03
2023-05-21T08:27:28.115Z,7.18
2023-05-21T08:29:55.227Z,7.40
2023-05-21T08:32:30.481Z,7.40
2023-05-21T08:34:58.329Z,7.00
2023-05-21T08:37:49.224Z,6.80
2023-05-21T08:40:24.204Z,7.38
2023-05-21T08:42:53.341Z,6.60
2023-05-21T08:45:42.754Z,7.15
2023-05-21T08:48:14.980Z,7.72
2023-05-21T08:50:43.134Z,7.05
2023-05-21T08:53:27.206Z,7.07
2023-05-21T08:55:57.565Z,7.10
2023-05-21T08:58:33.898Z,7.10
2023-05-21T09:01:01.724Z,7.38
2023-05-21T09:03:33.331Z,6.82
2023-05-21T09:06:00.934Z,6.85
2023-05-21T09:08:35.329Z,7.03
2023-05-21T09:11:12.797Z,6.63
2023-05-21T09:13:47.663Z,7.05
2023-05-21T09:16:22.133Z,7.10
2023-05-21T09:18:49.819Z,6.75
2023-05-21T09:21:27.877Z,6.53
2023-05-21T09:24:06.576Z,6.32
2023-05-21T09:26:34.210Z,6.55
2023-05-21T09:29:04.746Z,6.63
2023-05-21T09:31:33.092Z,6.82
2023-05-21T09:34:01.437Z,6.78
2023-05-21T09:36:29.650Z,6.43
2023-05-21T09:39:00.082Z,6.60
2023-05-21T09:41:37.059Z,6.23
2023-05-21T09:44:05.425Z,5.90
2023-05-21T09:46:40.584Z,6.78
2023-05-21T09:49:23.731Z,7.13
2023-05-21T09:51:54.753Z,7.13
2023-05-21T09:54:22.671Z,7.35
2023-05-21T09:56:51.198Z,6.38
2023-05-21T09:59:18.332Z,6.65
2023-05-21T10:01:46.144Z,6.32
2023-05-21T10:04:14.083Z,6.40
2023-05-21T10:06:45.666Z,6.77
2023-05-21T10:09:15.770Z,6.68
2023-05-21T10:11:45.126Z,6.70
2023-05-21T10:14:17.698Z,6.68
2023-05-21T10:16:51.282Z,6.28
2023-05-21T10:19:19.755Z,6.80
2023-05-21T10:21:47.976Z,5.93
2023-05-21T10:24:17.147Z,6.85
2023-05-21T10:26:46.399Z,6.32
2023-05-21T10:32:34.974Z,6.60
2023-05-21T10:35:09.416Z,6.53
2023-05-21T10:37:39.096Z,6.70
2023-05-21T10:40:08.970Z,6.65
2023-05-21T10:46:03.802Z,6.15
2023-05-21T10:49:08.527Z,6.70
2023-05-21T10:52:26.217Z,6.45
2023-05-21T10:54:54.745Z,6.22
2023-05-21T11:00:13.202Z,5.72
2023-05-21T11:03:24.047Z,5.82
2023-05-21T11:06:17.550Z,6.05
2023-05-21T11:12:11.045Z,6.07
2023-05-21T11:14:48.115Z,5.43
2023-05-21T11:20:48.554Z,5.63
2023-05-21T11:23:20.485Z,5.22
2023-05-21T11:26:07.211Z,6.07
2023-05-21T11:28:35.455Z,5.45
2023-05-21T11:31:25.814Z,5.63
2023-05-21T11:34:11.339Z,5.90
2023-05-21T11:36:39.422Z,5.95
2023-05-21T11:39:24.939Z,5.78
2023-05-21T11:42:03.133Z,5.75
2023-05-21T11:44:42.074Z,5.65
2023-05-21T11:47:11.178Z,5.47
2023-05-21T11:49:39.134Z,5.70
2023-05-21T11:52:07.878Z,5.95
2023-05-21T11:54:48.302Z,5.72
2023-05-21T11:57:19.629Z,5.40
2023-05-21T11:59:54.153Z,5.80
2023-05-21T12:02:25.486Z,5.72
2023-05-21T12:04:53.049Z,5.50
2023-05-21T12:07:20.847Z,5.50
2023-05-21T12:09:51.506Z,5.60
2023-05-21T12:12:23.942Z,5.55
2023-05-21T12:14:51.829Z,5.70
2023-05-21T12:17:20.675Z,5.47
2023-05-21T12:19:49.561Z,5.63
2023-05-21T12:22:16.790Z,5.35
2023-05-21T12:24:47.309Z,5.28
2023-05-21T12:27:17.155Z,5.63
2023-05-21T12:29:46.655Z,5.70
2023-05-21T12:32:17.831Z,5.47
2023-05-21T12:34:51.481Z,5.40
2023-05-21T12:37:32.685Z,5.30
2023-05-21T12:42:35.028Z,5.57
2023-05-21T12:45:10.013Z,6.03
2023-05-21T12:47:37.329Z,6.47
2023-05-21T12:50:08.564Z,5.88
2023-05-21T12:52:35.672Z,5.43
2023-05-21T12:55:02.910Z,5.55
2023-05-21T12:57:38.960Z,5.50
2023-05-21T13:00:08.960Z,5.90
2023-05-21T13:02:41.829Z,5.90
2023-05-21T13:05:11.283Z,5.75
2023-05-21T13:07:39.698Z,5.95
2023-05-21T13:10:07.708Z,5.35
2023-05-21T13:12:35.495Z,5.55
2023-05-21T13:15:08.626Z,5.70
2023-05-21T13:17:36.041Z,5.57
2023-05-21T13:20:32.456Z,5.47
2023-05-21T13:22:59.530Z,6.03
2023-05-21T13:25:30.473Z,6.28
2023-05-21T13:27:59.674Z,7.00
2023-05-21T13:30:26.853Z,5.20
2023-05-21T13:32:55.773Z,5.47
2023-05-21T13:35:22.913Z,5.40
2023-05-21T13:37:50.022Z,5.20
2023-05-21T13:40:17.338Z,5.10
2023-05-21T13:42:46.136Z,5.40
2023-05-21T13:45:19.622Z,5.10
2023-05-21T13:47:49.514Z,5.30
2023-05-21T13:50:18.280Z,4.93
2023-05-21T13:52:46.365Z,5.35
2023-05-21T13:55:16.018Z,4.85
2023-05-21T13:57:43.815Z,5.28
2023-05-21T14:00:14.213Z,5.22
2023-05-21T14:02:44.834Z,4.25
2023-05-21T14:05:13.619Z,4.97
2023-05-21T14:07:40.784Z,4.57
2023-05-21T14:10:08.413Z,4.50
2023-05-21T14:12:35.537Z,4.20
2023-05-21T14:15:02.545Z,3.80
2023-05-21T14:17:29.533Z,4.22
2023-05-21T14:19:56.508Z,4.18
2023-05-21T14:22:23.724Z,4.00
2023-05-21T14:24:51.474Z,4.10
2023-05-21T14:27:18.463Z,4.25
2023-05-21T14:29:45.533Z,4.47
2023-05-21T14:32:12.666Z,4.72
2023-05-21T14:34:40.450Z,3.90
2023-05-21T14:37:07.553Z,4.65
2023-05-21T14:39:34.592Z,4.00
2023-05-21T14:42:04.757Z,4.03
2023-05-21T14:44:32.548Z,3.95
2023-05-21T14:46:59.807Z,4.30
2023-05-21T14:49:27.005Z,4.28
2023-05-21T14:51:54.027Z,4.43
2023-05-21T14:54:21.121Z,4.80
2023-05-21T14:56:48.171Z,4.10
2023-05-21T14:59:15.284Z,4.00
2023-05-21T15:01:42.428Z,4.00
2023-05-21T15:04:09.975Z,4.05
2023-05-21T15:06:38.621Z,4.30
2023-05-21T15:09:05.748Z,4.15
2023-05-21T15:11:34.174Z,4.22
2023-05-21T15:14:01.116Z,4.38
2023-05-21T15:16:28.273Z,4.90
2023-05-21T15:18:57.550Z,4.30
2023-05-21T15:21:27.287Z,4.55
2023-05-21T15:23:55.189Z,4.47
2023-05-21T15:26:22.782Z,4.53
2023-05-21T15:28:49.683Z,4.90
2023-05-21T15:31:16.936Z,5.10
2023-05-21T15:33:44.025Z,4.30
2023-05-21T15:36:11.258Z,4.28
2023-05-21T15:38:38.441Z,4.90
2023-05-21T15:41:06.337Z,4.60
2023-05-21T15:43:36.900Z,4.63
2023-05-21T15:46:04.362Z,4.50
2023-05-21T15:48:31.323Z,4.35
2023-05-21T15:50:58.437Z,4.13
2023-05-21T15:53:25.598Z,4.45
2023-05-21T15:55:52.595Z,4.55
2023-05-21T15:58:19.630Z,4.82
2023-05-21T16:00:46.642Z,4.40
2023-05-21T16:03:13.959Z,4.93
2023-05-21T16:05:41.079Z,4.80
2023-05-21T16:08:10.868Z,4.80
2023-05-21T16:10:40.077Z,4.60
2023-05-21T16:13:07.223Z,5.13
2023-05-21T16:15:34.761Z,4.80
2023-05-21T16:18:01.929Z,4.70
2023-05-21T16:20:30.822Z,4.60
2023-05-21T16:22:57.972Z,4.50
2023-05-21T16:25:24.942Z,4.82
2023-05-21T16:27:52.059Z,4.53
2023-05-21T16:30:19.268Z,4.65
2023-05-21T16:32:46.335Z,4.72
2023-05-21T16:35:13.563Z,4.50
2023-05-21T16:37:40.804Z,4.95
2023-05-21T16:40:08.373Z,4.45
2023-05-21T16:42:35.348Z,4.70
2023-05-21T16:45:02.462Z,5.20
2023-05-21T16:47:29.661Z,4.88
2023-05-21T16:49:56.763Z,5.00
2023-05-21T16:52:24.359Z,5.05
2023-05-21T16:54:51.589Z,4.60
2023-05-21T16:57:18.787Z,4.88
2023-05-21T16:59:46.200Z,5.00
2023-05-21T17:02:13.974Z,4.93
2023-05-21T17:04:41.211Z,5.03
2023-05-21T17:07:08.116Z,5.40
2023-05-21T17:09:39.218Z,5.03
2023-05-21T17:12:06.543Z,4.93
2023-05-21T17:14:34.900Z,5.82
2023-05-21T17:17:02.589Z,5.50
2023-05-21T17:19:29.742Z,5.15
2023-05-21T17:21:57.295Z,5.18
2023-05-21T17:24:24.463Z,5.43
2023-05-21T17:26:52.842Z,6.53
2023-05-21T17:29:19.997Z,6.65
2023-05-21T17:31:47.139Z,5.35
2023-05-21T17:34:14.130Z,6.47
2023-05-21T17:36:41.146Z,5.60
2023-05-21T17:39:08.473Z,5.78
2023-05-21T17:41:35.511Z,6.32
2023-05-21T17:44:02.457Z,10.80
2023-05-21T17:46:29.642Z,14.15
2023-05-21T17:48:56.940Z,20.92
2023-05-21T17:51:23.978Z,26.58
2023-05-21T17:53:51.077Z,16.50
2023-05-21T17:56:18.230Z,12.27
2023-05-21T17:58:45.369Z,10.05
2023-05-21T18:01:12.548Z,9.40
2023-05-21T18:03:39.762Z,7.35
2023-05-21T18:06:08.765Z,7.20
2023-05-21T18:08:36.739Z,7.30
2023-05-21T18:11:03.747Z,6.50
2023-05-21T18:13:30.793Z,6.13
2023-05-21T18:15:58.658Z,5.93
2023-05-21T18:18:25.832Z,5.88
2023-05-21T18:20:53.280Z,5.93
2023-05-21T18:23:21.260Z,5.75
2023-05-21T18:25:49.924Z,5.88
2023-05-21T18:28:17.022Z,6.00
2023-05-21T18:30:44.099Z,6.93
2023-05-21T18:33:12.611Z,6.38
2023-05-21T18:35:39.636Z,6.30
2023-05-21T18:38:09.991Z,6.18
2023-05-21T18:40:38.047Z,5.70
2023-05-21T18:43:06.452Z,6.70
2023-05-21T18:45:34.156Z,6.63
2023-05-21T18:48:02.977Z,6.38
2023-05-21T18:50:31.765Z,6.13
2023-05-21T18:52:59.017Z,5.90
2023-05-21T18:55:26.585Z,6.30
2023-05-21T18:57:54.748Z,6.30
2023-05-21T19:00:22.077Z,6.45
2023-05-21T19:02:49.421Z,6.78
2023-05-21T19:05:16.857Z,7.15
2023-05-21T19:07:43.993Z,7.43
2023-05-21T19:10:12.371Z,6.78
2023-05-21T19:12:39.740Z,6.80
2023-05-21T19:15:07.688Z,6.80
2023-05-21T19:17:36.436Z,6.68
2023-05-21T19:20:05.457Z,6.53
2023-05-21T19:22:32.945Z,7.00
2023-05-21T19:25:00.793Z,6.38
2023-05-21T19:27:29.412Z,6.57
2023-05-21T19:29:56.442Z,6.50
2023-05-21T19:32:23.855Z,6.72
2023-05-21T19:34:52.582Z,6.60
2023-05-21T19:37:19.661Z,7.20
2023-05-21T19:39:50.033Z,6.82
2023-05-21T19:42:21.479Z,6.78
2023-05-21T19:44:48.606Z,6.60
2023-05-21T19:47:15.670Z,7.07
2023-05-21T19:49:42.815Z,6.43
2023-05-21T19:52:10.546Z,6.97
2023-05-21T19:54:37.690Z,7.05
2023-05-21T19:57:04.908Z,7.65
2023-05-21T19:59:31.943Z,6.65
2023-05-21T20:01:59.055Z,6.88
2023-05-21T20:04:26.176Z,6.88
2023-05-21T20:06:53.384Z,6.53
2023-05-21T20:09:20.601Z,6.95
2023-05-21T20:11:48.352Z,6.72
2023-05-21T20:14:15.579Z,6.75
2023-05-21T20:16:42.780Z,6.35
2023-05-21T20:19:10.909Z,6.55
2023-05-21T20:21:38.128Z,6.47
2023-05-21T20:24:05.768Z,6.03
2023-05-21T20:26:35.112Z,6.97
2023-05-21T20:29:02.421Z,7.00
2023-05-21T20:31:29.670Z,6.28
2023-05-21T20:34:10.441Z,6.82
2023-05-21T20:36:48.467Z,6.70
2023-05-21T20:39:16.757Z,6.38
2023-05-21T20:41:51.121Z,6.88
2023-05-21T20:44:37.831Z,6.30
2023-05-21T21:12:32.190Z,5.85
2023-05-21T22:13:29.893Z,5.60
2023-05-21T22:16:35.638Z,6.05
2023-05-21T22:23:58.254Z,6.10
2023-05-21T22:27:06.580Z,6.05
2023-05-21T22:29:45.559Z,5.78
2023-05-21T22:32:41.901Z,6.22
2023-05-21T22:35:36.535Z,5.75
2023-05-21T22:38:03.847Z,6.05
2023-05-21T22:40:50.448Z,5.78
2023-05-21T22:43:24.973Z,5.88
2023-05-21T22:45:55.734Z,5.57
2023-05-21T22:48:23.303Z,6.07
2023-05-21T22:50:57.643Z,5.97
2023-05-21T22:53:29.346Z,5.25
2023-05-21T22:56:11.133Z,5.80
2023-05-21T22:59:13.935Z,5.75
2023-05-21T23:02:18.071Z,5.93
2023-05-21T23:04:46.074Z,6.05
2023-05-21T23:07:33.286Z,5.70
2023-05-21T23:10:01.621Z,5.82
2023-05-21T23:12:30.556Z,5.85
2023-05-21T23:15:07.604Z,5.43
2023-05-21T23:17:40.771Z,5.10
2023-05-21T23:20:09.141Z,5.68
2023-05-21T23:22:37.941Z,5.90
2023-05-21T23:25:38.530Z,5.93
2023-05-21T23:28:09.617Z,5.22
2023-05-21T23:30:38.084Z,5.70
2023-05-21T23:33:06.890Z,5.43
2023-05-21T23:35:34.819Z,5.63
2023-05-21T23:38:02.839Z,4.93
2023-05-21T23:40:31.407Z,5.50
2023-05-21T23:43:05.200Z,5.35
2023-05-21T23:45:35.515Z,4.95
2023-05-21T23:48:06.312Z,5.80
2023-05-21T23:50:39.935Z,5.13
2023-05-21T23:53:19.141Z,5.65
2023-05-21T23:58:46.210Z,5.35
